Time;durP1;ratioP1;P1;durP2;ratioP2;P2;SDS_P1;SDS_P2;PMS_P1;PMS_P2;Temp;Humidity;BMP_temperature;BMP_pressure;BME280_temperature;BME280_humidity;BME280_pressure;Samples;Min_cycle;Max_cycle;Signal;HPM_P1;HPM_P2
2023/09/09 00:01:47;;;;;;;39.03;27.55;;;;;;;;;;4982410;28;20478;-78
2023/09/09 00:04:12;;;;;;;46.88;31.23;;;;;;;;;;5004538;28;20100;-78
2023/09/09 00:06:37;;;;;;;46.22;30.58;;;;;;;;;;4987938;28;20045;-78
2023/09/09 00:09:04;;;;;;;42.88;27.52;;;;;;;;;;4999030;28;20025;-77
2023/09/09 00:11:30;;;;;;;38.08;24.45;;;;;;;;;;4994799;28;20041;-78
2023/09/09 00:13:56;;;;;;;37.63;24.00;;;;;;;;;;4997504;28;20088;-78
2023/09/09 00:16:21;;;;;;;39.67;25.70;;;;;;;;;;5000832;28;20034;-78
2023/09/09 00:18:47;;;;;;;39.45;26.20;;;;;;;;;;5000770;28;20039;-78
2023/09/09 00:21:14;;;;;;;37.83;26.48;;;;;;;;;;4980180;28;20021;-78
2023/09/09 00:23:39;;;;;;;31.08;21.88;;;;;;;;;;5002644;28;20278;-77
2023/09/09 00:26:04;;;;;;;18.90;14.60;;;;;;;;;;4992406;28;20049;-78
2023/09/09 00:28:29;;;;;;;16.80;13.55;;;;;;;;;;4977465;28;20034;-78
2023/09/09 00:30:55;;;;;;;17.67;13.70;;;;;;;;;;4980238;28;20547;-77
2023/09/09 00:33:20;;;;;;;22.08;14.20;;;;;;;;;;4987606;28;20021;-78
2023/09/09 00:35:45;;;;;;;23.73;16.65;;;;;;;;;;4983124;28;20060;-77
2023/09/09 00:38:12;;;;;;;29.33;20.85;;;;;;;;;;5000869;28;20459;-77
2023/09/09 00:40:37;;;;;;;31.77;22.63;;;;;;;;;;4996926;28;20038;-77
2023/09/09 00:43:03;;;;;;;34.58;23.38;;;;;;;;;;4994724;28;20102;-77
2023/09/09 00:45:28;;;;;;;41.50;28.10;;;;;;;;;;5001624;28;20037;-78
2023/09/09 00:47:55;;;;;;;57.42;32.25;;;;;;;;;;4995054;28;20027;-77
2023/09/09 00:50:21;;;;;;;50.92;31.30;;;;;;;;;;4996098;28;20058;-77
2023/09/09 00:52:47;;;;;;;50.65;31.88;;;;;;;;;;5003633;28;20034;-77
2023/09/09 00:55:13;;;;;;;60.42;33.55;;;;;;;;;;4999635;28;20087;-77
2023/09/09 00:57:38;;;;;;;60.50;34.72;;;;;;;;;;4979325;28;20405;-78
2023/09/09 01:00:09;;;;;;;55.28;32.78;;;;;;;;;;4998119;28;20040;-77
2023/09/09 01:02:36;;;;;;;55.70;32.58;;;;;;;;;;4986778;28;20125;-77
2023/09/09 01:05:03;;;;;;;48.03;30.85;;;;;;;;;;4970265;28;20050;-77
2023/09/09 01:07:41;;;;;;;57.00;34.55;;;;;;;;;;5003110;28;20043;-77
2023/09/09 01:10:06;;;;;;;67.82;38.50;;;;;;;;;;4997747;28;20034;-77
2023/09/09 01:12:32;;;;;;;58.60;34.88;;;;;;;;;;4985826;28;20044;-77
2023/09/09 01:14:57;;;;;;;54.63;33.85;;;;;;;;;;4992162;28;20053;-77
2023/09/09 01:17:22;;;;;;;27.98;20.50;;;;;;;;;;5000241;28;20030;-77
2023/09/09 01:19:48;;;;;;;24.55;18.25;;;;;;;;;;4987882;28;20058;-77
2023/09/09 01:22:18;;;;;;;23.00;17.42;;;;;;;;;;4994536;28;20040;-77
2023/09/09 01:24:45;;;;;;;21.75;15.20;;;;;;;;;;4993376;28;20289;-77
2023/09/09 01:27:10;;;;;;;19.92;15.15;;;;;;;;;;4997895;28;20022;-78
2023/09/09 01:29:35;;;;;;;21.77;15.80;;;;;;;;;;4992590;28;20030;-76
2023/09/09 01:32:00;;;;;;;20.60;15.07;;;;;;;;;;4989488;28;20125;-76
2023/09/09 01:34:26;;;;;;;21.75;15.35;;;;;;;;;;4993745;28;20492;-77
2023/09/09 01:36:51;;;;;;;33.05;22.30;;;;;;;;;;4993050;28;20045;-77
2023/09/09 01:39:16;;;;;;;40.10;24.75;;;;;;;;;;4988948;28;20475;-77
2023/09/09 01:41:42;;;;;;;50.95;29.48;;;;;;;;;;4996216;28;20310;-77
2023/09/09 01:44:08;;;;;;;66.10;34.47;;;;;;;;;;5001770;28;20463;-77
2023/09/09 01:46:33;;;;;;;60.88;33.33;;;;;;;;;;4977551;28;20030;-77
2023/09/09 01:49:00;;;;;;;61.75;35.92;;;;;;;;;;4982275;28;20034;-77
2023/09/09 01:51:26;;;;;;;61.92;36.28;;;;;;;;;;4985831;28;20039;-77
2023/09/09 01:53:51;;;;;;;68.57;36.35;;;;;;;;;;4990803;28;20579;-77
2023/09/09 01:56:16;;;;;;;62.97;34.05;;;;;;;;;;4998574;28;20022;-77
2023/09/09 01:58:42;;;;;;;68.82;36.72;;;;;;;;;;4998789;28;20069;-77
2023/09/09 02:01:07;;;;;;;73.57;37.97;;;;;;;;;;4992910;28;20049;-77
2023/09/09 02:03:32;;;;;;;64.70;33.97;;;;;;;;;;4990136;28;20228;-76
2023/09/09 02:05:58;;;;;;;51.10;30.25;;;;;;;;;;4973360;28;20492;-77
2023/09/09 02:08:23;;;;;;;39.03;24.10;;;;;;;;;;4977964;28;20030;-77
2023/09/09 02:10:50;;;;;;;37.30;21.90;;;;;;;;;;4994390;28;20045;-76
2023/09/09 02:13:15;;;;;;;29.35;18.88;;;;;;;;;;4975295;28;20038;-79
2023/09/09 02:15:40;;;;;;;24.67;17.10;;;;;;;;;;4998787;28;20554;-79
2023/09/09 02:18:06;;;;;;;22.85;16.02;;;;;;;;;;4995325;28;20079;-77
2023/09/09 02:20:31;;;;;;;23.88;16.92;;;;;;;;;;4992785;28;20026;-76
2023/09/09 02:22:56;;;;;;;22.85;15.32;;;;;;;;;;4993027;28;20492;-78
2023/09/09 02:25:21;;;;;;;23.20;15.48;;;;;;;;;;4997911;28;20227;-78
2023/09/09 02:27:47;;;;;;;29.05;20.38;;;;;;;;;;4983318;28;20125;-78
2023/09/09 02:30:13;;;;;;;29.20;20.05;;;;;;;;;;4969996;28;20038;-78
2023/09/09 02:32:38;;;;;;;39.92;23.38;;;;;;;;;;4996587;28;20104;-78
2023/09/09 02:35:04;;;;;;;35.10;24.42;;;;;;;;;;4999119;28;20376;-78
2023/09/09 02:37:29;;;;;;;37.97;23.58;;;;;;;;;;4999528;28;20145;-78
2023/09/09 02:39:55;;;;;;;45.25;26.83;;;;;;;;;;4976966;28;20041;-78
2023/09/09 02:42:22;;;;;;;53.30;30.40;;;;;;;;;;4996219;28;20030;-78
2023/09/09 02:44:50;;;;;;;52.05;29.88;;;;;;;;;;4999230;28;20038;-78
2023/09/09 02:47:16;;;;;;;48.72;29.40;;;;;;;;;;4999383;28;20121;-78
2023/09/09 02:49:43;;;;;;;49.20;28.60;;;;;;;;;;5004253;28;20124;-78
2023/09/09 02:54:38;;;;;;;49.08;27.90;;;;;;;;;;5004295;28;20484;-81
2023/09/09 02:57:03;;;;;;;46.92;27.13;;;;;;;;;;5005773;28;20477;-83
2023/09/09 02:59:30;;;;;;;45.17;25.20;;;;;;;;;;5006560;28;20117;-84
2023/09/09 03:01:56;;;;;;;40.47;24.65;;;;;;;;;;5007650;28;20415;-81
2023/09/09 03:04:21;;;;;;;50.25;28.58;;;;;;;;;;4992298;28;20145;-80
2023/09/09 03:06:46;;;;;;;56.15;30.98;;;;;;;;;;5010551;28;20034;-83
2023/09/09 03:09:14;;;;;;;74.47;37.08;;;;;;;;;;5001254;28;20061;-81
2023/09/09 03:11:39;;;;;;;57.50;33.47;;;;;;;;;;4984274;28;20030;-80
2023/09/09 03:14:04;;;;;;;78.35;36.53;;;;;;;;;;5007587;28;20228;-81
2023/09/09 03:16:29;;;;;;;59.45;31.13;;;;;;;;;;5006103;28;20041;-82
2023/09/09 03:18:55;;;;;;;52.72;28.45;;;;;;;;;;5008718;28;20038;-83
2023/09/09 03:21:20;;;;;;;38.17;24.60;;;;;;;;;;4989868;28;20015;-83
2023/09/09 03:23:45;;;;;;;40.97;24.13;;;;;;;;;;5008660;28;20049;-80
2023/09/09 03:26:18;;;;;;;42.40;22.75;;;;;;;;;;4989929;28;20046;-82
2023/09/09 03:28:44;;;;;;;40.13;23.00;;;;;;;;;;5005667;28;20399;-82
2023/09/09 03:31:09;;;;;;;41.15;23.27;;;;;;;;;;4989158;28;20091;-82
2023/09/09 03:33:34;;;;;;;34.40;20.98;;;;;;;;;;5005049;28;20030;-79
2023/09/09 03:35:59;;;;;;;37.63;21.08;;;;;;;;;;5004898;28;20054;-79
2023/09/09 03:38:25;;;;;;;38.88;21.85;;;;;;;;;;4989592;28;20048;-83
2023/09/09 03:40:50;;;;;;;34.25;22.35;;;;;;;;;;4997585;28;20038;-80
2023/09/09 03:43:16;;;;;;;42.10;23.45;;;;;;;;;;5000858;28;20034;-83
2023/09/09 03:45:41;;;;;;;46.45;27.15;;;;;;;;;;5000410;28;20053;-83
2023/09/09 03:48:06;;;;;;;49.28;26.13;;;;;;;;;;5003901;28;20022;-81
2023/09/09 03:50:32;;;;;;;39.15;24.13;;;;;;;;;;5005564;28;20041;-82
2023/09/09 03:52:58;;;;;;;42.83;25.17;;;;;;;;;;5006748;28;20072;-80
2023/09/09 03:55:24;;;;;;;40.85;24.45;;;;;;;;;;5000385;28;20042;-81
2023/09/09 03:57:49;;;;;;;46.53;25.42;;;;;;;;;;5002949;28;20434;-83
2023/09/09 04:00:15;;;;;;;42.67;24.77;;;;;;;;;;4999495;28;20022;-78
2023/09/09 04:02:40;;;;;;;52.17;28.52;;;;;;;;;;5005377;28;20129;-83
2023/09/09 04:05:07;;;;;;;51.85;28.67;;;;;;;;;;5004487;28;21234;-81
2023/09/09 04:07:35;;;;;;;51.17;28.38;;;;;;;;;;5000585;28;20067;-81
2023/09/09 04:10:04;;;;;;;56.33;28.38;;;;;;;;;;4995416;28;20102;-82
2023/09/09 04:12:29;;;;;;;48.17;26.30;;;;;;;;;;4998252;28;20061;-79
2023/09/09 04:14:55;;;;;;;42.03;24.50;;;;;;;;;;5004235;28;20535;-81
2023/09/09 04:17:20;;;;;;;46.53;24.27;;;;;;;;;;5000804;28;20042;-82
2023/09/09 04:19:45;;;;;;;42.50;23.88;;;;;;;;;;4996212;28;20034;-83
2023/09/09 04:22:11;;;;;;;45.55;25.00;;;;;;;;;;4998197;28;20038;-81
2023/09/09 04:24:36;;;;;;;41.55;25.10;;;;;;;;;;4988581;28;20488;-82
2023/09/09 04:27:02;;;;;;;43.58;26.55;;;;;;;;;;5004489;28;20025;-82
2023/09/09 04:29:27;;;;;;;46.38;27.17;;;;;;;;;;5001103;28;20042;-81
2023/09/09 04:31:53;;;;;;;45.17;26.05;;;;;;;;;;5003582;28;20030;-81
2023/09/09 04:34:19;;;;;;;40.78;24.52;;;;;;;;;;5009074;28;20722;-84
2023/09/09 04:36:45;;;;;;;47.53;27.02;;;;;;;;;;5007493;28;20072;-82
2023/09/09 04:39:13;;;;;;;55.00;28.58;;;;;;;;;;5001901;28;20018;-82
2023/09/09 04:41:39;;;;;;;90.70;29.35;;;;;;;;;;5007127;28;20033;-82
2023/09/09 04:44:04;;;;;;;49.10;27.38;;;;;;;;;;5004538;28;20046;-82
2023/09/09 04:46:29;;;;;;;49.83;28.48;;;;;;;;;;4984808;28;20037;-80
2023/09/09 04:48:54;;;;;;;54.85;29.33;;;;;;;;;;5006056;28;20050;-80
2023/09/09 04:51:20;;;;;;;57.95;31.02;;;;;;;;;;4998358;28;20111;-82
2023/09/09 04:53:45;;;;;;;69.22;32.83;;;;;;;;;;4999862;28;20099;-82
2023/09/09 04:56:10;;;;;;;72.95;33.88;;;;;;;;;;5004417;28;20141;-80
2023/09/09 04:58:36;;;;;;;56.88;31.52;;;;;;;;;;4995502;28;20042;-82
2023/09/09 05:01:01;;;;;;;52.80;31.17;;;;;;;;;;4990671;28;20045;-80
2023/09/09 05:03:26;;;;;;;52.05;30.38;;;;;;;;;;5007173;28;20037;-81
2023/09/09 05:05:52;;;;;;;63.90;31.13;;;;;;;;;;5007669;28;20156;-82
2023/09/09 05:08:17;;;;;;;56.28;29.52;;;;;;;;;;5007790;28;20042;-78
2023/09/09 05:10:42;;;;;;;51.50;30.25;;;;;;;;;;5008419;28;20065;-78
2023/09/09 05:13:08;;;;;;;55.70;31.33;;;;;;;;;;5006768;28;20038;-80
2023/09/09 05:15:33;;;;;;;66.93;33.53;;;;;;;;;;4989319;28;20754;-81
2023/09/09 05:17:58;;;;;;;58.65;32.33;;;;;;;;;;5008958;28;20022;-79
2023/09/09 05:20:24;;;;;;;57.22;32.25;;;;;;;;;;5004238;28;20030;-80
2023/09/09 05:22:49;;;;;;;56.78;31.15;;;;;;;;;;5007614;28;20075;-81
2023/09/09 05:25:15;;;;;;;47.67;30.55;;;;;;;;;;5007146;28;20030;-81
2023/09/09 05:27:40;;;;;;;47.13;32.03;;;;;;;;;;5005187;28;20060;-81
2023/09/09 05:30:06;;;;;;;64.90;34.47;;;;;;;;;;5005380;28;20030;-82
2023/09/09 05:32:31;;;;;;;52.35;32.28;;;;;;;;;;5003071;28;20040;-80
2023/09/09 05:34:57;;;;;;;48.85;30.63;;;;;;;;;;5003301;28;20048;-80
2023/09/09 05:37:26;;;;;;;37.90;26.73;;;;;;;;;;5004241;28;20034;-82
2023/09/09 05:39:51;;;;;;;35.25;23.83;;;;;;;;;;5009886;28;20038;-82
2023/09/09 05:42:16;;;;;;;29.95;21.48;;;;;;;;;;5010077;28;20030;-82
2023/09/09 05:44:42;;;;;;;21.17;17.52;;;;;;;;;;5008242;28;20026;-80
2023/09/09 05:47:08;;;;;;;22.27;17.67;;;;;;;;;;5005650;28;20042;-82
2023/09/09 05:49:33;;;;;;;24.35;18.35;;;;;;;;;;5010932;28;20042;-83
2023/09/09 05:51:58;;;;;;;24.67;18.95;;;;;;;;;;4988124;28;20093;-82
2023/09/09 05:54:24;;;;;;;22.13;16.70;;;;;;;;;;4994041;28;20045;-80
2023/09/09 05:56:49;;;;;;;17.10;14.57;;;;;;;;;;5007855;28;20536;-79
2023/09/09 05:59:14;;;;;;;16.63;14.93;;;;;;;;;;5006810;28;20040;-80
2023/09/09 06:01:40;;;;;;;19.63;15.60;;;;;;;;;;5008566;28;20430;-81
2023/09/09 06:04:05;;;;;;;17.13;14.60;;;;;;;;;;5010161;28;20038;-81
2023/09/09 06:06:30;;;;;;;14.98;13.40;;;;;;;;;;5009695;28;20662;-80
2023/09/09 06:08:57;;;;;;;14.07;12.32;;;;;;;;;;5007893;28;20111;-80
2023/09/09 06:11:23;;;;;;;16.83;10.93;;;;;;;;;;5008870;28;20038;-83
2023/09/09 06:13:48;;;;;;;12.75;10.38;;;;;;;;;;5007955;28;20045;-80
2023/09/09 06:16:13;;;;;;;10.65;8.32;;;;;;;;;;5002875;28;20056;-82
2023/09/09 06:18:39;;;;;;;9.15;8.25;;;;;;;;;;5009687;28;20053;-78
2023/09/09 06:21:04;;;;;;;11.65;9.13;;;;;;;;;;4991216;28;20354;-81
2023/09/09 06:23:29;;;;;;;12.15;9.90;;;;;;;;;;5011683;28;20476;-82
2023/09/09 06:25:54;;;;;;;16.63;9.23;;;;;;;;;;5007726;28;20058;-82
2023/09/09 06:28:20;;;;;;;10.43;9.27;;;;;;;;;;5006245;28;20410;-81
2023/09/09 06:30:45;;;;;;;11.88;9.38;;;;;;;;;;4987109;28;20038;-80
2023/09/09 06:33:10;;;;;;;9.77;8.70;;;;;;;;;;4990946;28;20025;-80
2023/09/09 06:35:37;;;;;;;8.82;7.80;;;;;;;;;;5002301;28;20058;-79
2023/09/09 06:38:02;;;;;;;9.95;8.30;;;;;;;;;;5011690;28;20037;-81
2023/09/09 06:40:27;;;;;;;9.40;7.88;;;;;;;;;;4988783;28;20558;-80
2023/09/09 06:42:54;;;;;;;8.60;7.18;;;;;;;;;;5011419;28;20462;-82
2023/09/09 06:45:19;;;;;;;8.40;7.60;;;;;;;;;;4995071;28;20121;-82
2023/09/09 06:47:48;;;;;;;9.73;7.32;;;;;;;;;;4994237;28;20064;-80
2023/09/09 06:50:13;;;;;;;12.18;7.88;;;;;;;;;;4982345;28;20042;-80
2023/09/09 06:52:39;;;;;;;10.68;7.63;;;;;;;;;;5009191;28;20132;-81
2023/09/09 06:55:06;;;;;;;9.38;7.53;;;;;;;;;;5006321;28;20034;-81
2023/09/09 06:57:31;;;;;;;8.55;7.07;;;;;;;;;;5005956;28;20033;-81
2023/09/09 06:59:56;;;;;;;7.80;7.00;;;;;;;;;;4989370;28;20042;-80
2023/09/09 07:02:22;;;;;;;8.60;7.55;;;;;;;;;;5005033;28;20117;-79
2023/09/09 07:04:47;;;;;;;7.47;6.57;;;;;;;;;;5007877;28;20058;-80
2023/09/09 07:07:13;;;;;;;11.35;6.95;;;;;;;;;;5008198;28;20511;-80
2023/09/09 07:09:38;;;;;;;8.68;7.22;;;;;;;;;;4989581;28;20368;-78
2023/09/09 07:12:04;;;;;;;7.05;6.13;;;;;;;;;;5009593;28;20033;-81
2023/09/09 07:14:29;;;;;;;8.13;6.75;;;;;;;;;;5009173;28;20014;-80
2023/09/09 07:16:55;;;;;;;8.60;6.35;;;;;;;;;;5006350;28;20117;-80
2023/09/09 07:19:20;;;;;;;6.63;5.93;;;;;;;;;;5009698;28;20045;-80
2023/09/09 07:21:45;;;;;;;7.93;6.65;;;;;;;;;;5009267;28;20049;-80
2023/09/09 07:24:10;;;;;;;7.25;6.25;;;;;;;;;;4990311;28;20128;-81
2023/09/09 07:26:36;;;;;;;9.30;6.47;;;;;;;;;;5003261;28;20022;-81
2023/09/09 07:29:01;;;;;;;7.90;6.50;;;;;;;;;;5008522;28;20059;-80
2023/09/09 07:31:28;;;;;;;8.65;7.18;;;;;;;;;;5004555;28;21422;-81
2023/09/09 07:33:54;;;;;;;7.75;6.95;;;;;;;;;;4992353;28;20030;-79
2023/09/09 07:36:20;;;;;;;20.45;6.95;;;;;;;;;;5007479;28;20049;-80
2023/09/09 07:38:45;;;;;;;14.05;6.95;;;;;;;;;;5021390;28;20077;-79
2023/09/09 07:41:10;;;;;;;8.48;6.93;;;;;;;;;;5004997;28;20039;-79
2023/09/09 07:43:36;;;;;;;8.77;7.07;;;;;;;;;;5007648;28;20524;-79
2023/09/09 07:46:01;;;;;;;9.13;6.72;;;;;;;;;;5007929;28;20030;-79
2023/09/09 07:48:27;;;;;;;10.63;7.05;;;;;;;;;;4990759;28;20098;-79
2023/09/09 07:50:54;;;;;;;8.13;7.32;;;;;;;;;;5004169;28;21945;-80
2023/09/09 07:53:19;;;;;;;9.27;7.07;;;;;;;;;;5005311;28;20713;-79
2023/09/09 07:55:47;;;;;;;8.13;7.32;;;;;;;;;;5000273;28;20046;-80
2023/09/09 07:58:13;;;;;;;7.80;7.05;;;;;;;;;;5002219;28;20127;-80
2023/09/09 08:00:41;;;;;;;8.07;7.28;;;;;;;;;;5002581;28;20080;-80
2023/09/09 08:03:06;;;;;;;9.57;7.20;;;;;;;;;;5004657;28;20027;-80
2023/09/09 08:05:32;;;;;;;9.07;7.97;;;;;;;;;;5003989;28;20079;-81
2023/09/09 08:07:57;;;;;;;8.25;7.25;;;;;;;;;;5002507;28;20106;-81
2023/09/09 08:10:23;;;;;;;10.40;7.65;;;;;;;;;;5004840;28;20041;-80
2023/09/09 08:12:48;;;;;;;8.07;7.22;;;;;;;;;;5005273;28;20065;-81
2023/09/09 08:15:13;;;;;;;10.10;7.45;;;;;;;;;;5009988;28;20488;-81
2023/09/09 08:17:38;;;;;;;9.90;7.68;;;;;;;;;;5006706;28;20022;-81
2023/09/09 08:20:06;;;;;;;11.63;7.32;;;;;;;;;;5008584;28;20079;-79
2023/09/09 08:22:31;;;;;;;12.32;7.68;;;;;;;;;;5019301;28;20435;-79
2023/09/09 08:24:57;;;;;;;8.25;7.40;;;;;;;;;;5006569;28;20116;-78
2023/09/09 08:27:22;;;;;;;8.57;7.30;;;;;;;;;;5010694;28;20523;-80
2023/09/09 08:29:47;;;;;;;8.73;7.32;;;;;;;;;;5011846;28;20389;-79
2023/09/09 08:32:13;;;;;;;8.30;7.45;;;;;;;;;;5008226;28;20125;-80
2023/09/09 08:34:38;;;;;;;14.15;7.90;;;;;;;;;;4985859;28;20034;-80
2023/09/09 08:37:03;;;;;;;9.32;7.63;;;;;;;;;;5009120;28;20069;-81
2023/09/09 08:39:29;;;;;;;10.90;7.78;;;;;;;;;;5007537;28;20034;-81
2023/09/09 08:42:07;;;;;;;8.65;7.75;;;;;;;;;;5014098;28;20479;-82
2023/09/09 08:44:40;;;;;;;10.30;7.53;;;;;;;;;;5005302;28;20042;-80
2023/09/09 08:47:05;;;;;;;11.55;7.70;;;;;;;;;;5005296;28;20034;-81
2023/09/09 08:49:31;;;;;;;9.45;7.93;;;;;;;;;;5011682;28;20038;-81
2023/09/09 08:52:23;;;;;;;10.93;7.70;;;;;;;;;;5012734;22;20402;-77
2023/09/09 08:54:49;;;;;;;11.52;8.05;;;;;;;;;;4982268;28;20043;-78
2023/09/09 08:57:14;;;;;;;9.27;7.13;;;;;;;;;;4975426;28;20027;-77
2023/09/09 08:59:42;;;;;;;10.20;7.60;;;;;;;;;;4961051;28;20492;-78
2023/09/09 09:02:09;;;;;;;8.98;7.63;;;;;;;;;;4962352;28;20039;-78
2023/09/09 09:04:36;;;;;;;9.73;7.20;;;;;;;;;;4946259;28;20031;-77
2023/09/09 09:07:02;;;;;;;12.38;8.23;;;;;;;;;;4961281;28;20042;-78
2023/09/09 09:09:29;;;;;;;12.98;7.55;;;;;;;;;;4976535;28;20039;-77
2023/09/09 09:11:58;;;;;;;10.43;7.25;;;;;;;;;;4965143;28;20027;-77
2023/09/09 09:14:23;;;;;;;9.80;7.55;;;;;;;;;;4965937;28;20038;-77
2023/09/09 09:16:49;;;;;;;11.38;7.45;;;;;;;;;;4969720;28;20039;-78
2023/09/09 09:19:28;;;;;;;11.18;7.82;;;;;;;;;;4956138;28;20041;-78
2023/09/09 09:21:55;;;;;;;8.20;7.40;;;;;;;;;;4964839;28;20432;-77
2023/09/09 09:24:28;;;;;;;14.68;7.28;;;;;;;;;;4968151;28;20035;-78
2023/09/09 09:26:55;;;;;;;12.33;7.67;;;;;;;;;;4966283;28;20031;-77
2023/09/09 09:29:20;;;;;;;9.70;7.07;;;;;;;;;;4968692;28;20289;-78
2023/09/09 09:31:54;;;;;;;9.40;7.55;;;;;;;;;;4968590;28;20039;-78
2023/09/09 09:34:31;;;;;;;12.75;7.82;;;;;;;;;;4966352;28;20719;-76
2023/09/09 09:36:56;;;;;;;8.63;7.70;;;;;;;;;;4965658;28;20054;-78
2023/09/09 09:39:22;;;;;;;8.77;7.68;;;;;;;;;;4966855;28;20019;-76
2023/09/09 09:41:48;;;;;;;11.95;7.30;;;;;;;;;;4977402;28;20033;-77
2023/09/09 09:44:18;;;;;;;9.70;7.28;;;;;;;;;;4966832;28;20027;-77
2023/09/09 09:46:58;;;;;;;10.40;7.22;;;;;;;;;;4992922;28;21351;-77
2023/09/09 09:49:51;;;;;;;11.52;7.30;;;;;;;;;;4964846;28;20399;-77
2023/09/09 09:52:24;;;;;;;11.68;7.18;;;;;;;;;;4961251;28;20209;-78
2023/09/09 09:54:51;;;;;;;8.45;7.20;;;;;;;;;;4967097;28;20063;-78
2023/09/09 09:57:17;;;;;;;11.02;7.47;;;;;;;;;;4969883;28;20022;-76
2023/09/09 09:59:43;;;;;;;8.60;6.32;;;;;;;;;;4960868;28;20052;-77
2023/09/09 10:02:10;;;;;;;9.13;6.57;;;;;;;;;;4961512;28;20027;-77
2023/09/09 10:04:42;;;;;;;11.32;6.88;;;;;;;;;;4961434;28;20043;-77
2023/09/09 10:07:13;;;;;;;11.93;6.78;;;;;;;;;;4965447;28;20385;-76
2023/09/09 10:09:53;;;;;;;11.45;6.30;;;;;;;;;;4963595;28;20035;-77
2023/09/09 10:12:33;;;;;;;7.03;6.18;;;;;;;;;;4964859;28;20014;-76
2023/09/09 10:15:00;;;;;;;15.60;7.28;;;;;;;;;;4954009;28;20191;-78
2023/09/09 10:17:28;;;;;;;9.98;7.32;;;;;;;;;;4965141;28;20043;-76
2023/09/09 10:19:54;;;;;;;11.25;7.40;;;;;;;;;;4948194;28;20066;-77
2023/09/09 10:22:21;;;;;;;8.07;7.15;;;;;;;;;;4963471;28;20038;-77
2023/09/09 10:24:47;;;;;;;8.68;7.15;;;;;;;;;;4963368;28;20151;-78
2023/09/09 10:27:13;;;;;;;8.07;6.20;;;;;;;;;;4962574;28;20030;-76
2023/09/09 10:29:41;;;;;;;9.25;6.88;;;;;;;;;;4965459;28;20091;-77
2023/09/09 10:32:08;;;;;;;9.05;6.78;;;;;;;;;;4970935;28;20050;-77
2023/09/09 10:34:36;;;;;;;7.22;6.25;;;;;;;;;;4945672;28;20042;-77
2023/09/09 10:37:03;;;;;;;10.85;6.03;;;;;;;;;;4971601;28;20042;-77
2023/09/09 10:39:30;;;;;;;11.07;6.22;;;;;;;;;;4965067;28;20373;-77
2023/09/09 10:41:57;;;;;;;10.13;6.47;;;;;;;;;;4962413;28;20134;-76
2023/09/09 10:44:22;;;;;;;12.02;6.07;;;;;;;;;;4964342;28;20027;-76
2023/09/09 10:46:53;;;;;;;9.50;6.28;;;;;;;;;;4952596;28;20083;-77
2023/09/09 10:49:23;;;;;;;7.88;5.43;;;;;;;;;;4963589;28;20572;-77
2023/09/09 10:51:50;;;;;;;12.65;5.90;;;;;;;;;;4962768;28;20404;-77
2023/09/09 10:54:22;;;;;;;6.13;5.53;;;;;;;;;;4963188;28;20042;-77
2023/09/09 10:56:49;;;;;;;9.13;5.78;;;;;;;;;;4964260;28;20724;-77
2023/09/09 10:59:17;;;;;;;6.20;5.60;;;;;;;;;;4956029;28;20173;-76
2023/09/09 11:01:42;;;;;;;8.15;5.90;;;;;;;;;;4957177;28;20420;-76
2023/09/09 11:04:18;;;;;;;9.52;5.53;;;;;;;;;;4962182;28;20032;-76
2023/09/09 11:07:07;;;;;;;8.73;5.45;;;;;;;;;;4957032;28;20050;-77
2023/09/09 11:09:34;;;;;;;7.57;5.07;;;;;;;;;;4961472;28;20042;-79
2023/09/09 11:11:59;;;;;;;7.95;5.38;;;;;;;;;;4962941;28;20313;-76
2023/09/09 11:14:33;;;;;;;13.40;5.57;;;;;;;;;;4960370;28;20031;-76
2023/09/09 11:16:59;;;;;;;5.72;5.13;;;;;;;;;;4958473;28;20041;-79
2023/09/09 11:19:24;;;;;;;5.82;5.22;;;;;;;;;;4963520;28;20031;-79
2023/09/09 11:21:51;;;;;;;5.93;4.97;;;;;;;;;;4946560;28;20042;-76
2023/09/09 11:24:17;;;;;;;8.05;5.63;;;;;;;;;;4962048;28;20122;-76
2023/09/09 11:26:48;;;;;;;6.10;5.10;;;;;;;;;;4959608;28;20035;-77
2023/09/09 11:29:15;;;;;;;10.85;5.03;;;;;;;;;;4960233;28;20474;-77
2023/09/09 11:31:40;;;;;;;5.55;5.00;;;;;;;;;;4967068;28;20058;-77
2023/09/09 11:34:05;;;;;;;7.57;5.22;;;;;;;;;;4960642;28;20541;-76
2023/09/09 11:36:31;;;;;;;6.18;4.82;;;;;;;;;;4948215;28;20050;-76
2023/09/09 11:38:59;;;;;;;10.07;4.82;;;;;;;;;;4951741;28;20471;-76
2023/09/09 11:41:27;;;;;;;15.20;6.55;;;;;;;;;;4947141;28;20039;-78
2023/09/09 11:44:07;;;;;;;5.38;4.88;;;;;;;;;;4959603;28;20519;-76
2023/09/09 11:46:40;;;;;;;5.13;4.63;;;;;;;;;;4964975;28;20797;-76
2023/09/09 11:49:06;;;;;;;5.95;5.28;;;;;;;;;;4972683;28;20078;-76
2023/09/09 11:51:33;;;;;;;10.13;5.63;;;;;;;;;;4965059;28;20417;-79
2023/09/09 11:54:01;;;;;;;5.95;4.47;;;;;;;;;;4964703;28;20023;-77
2023/09/09 11:56:27;;;;;;;7.22;4.60;;;;;;;;;;4957814;28;20137;-77
2023/09/09 11:58:53;;;;;;;6.78;4.70;;;;;;;;;;4961170;28;20074;-77
2023/09/09 12:01:19;;;;;;;11.40;5.60;;;;;;;;;;4952796;28;20036;-77
2023/09/09 12:03:45;;;;;;;5.30;4.60;;;;;;;;;;4946939;28;20039;-76
2023/09/09 12:06:12;;;;;;;8.70;4.90;;;;;;;;;;4969033;28;20035;-79
2023/09/09 12:08:38;;;;;;;50.63;8.18;;;;;;;;;;4982721;28;20046;-78
2023/09/09 12:11:07;;;;;;;6.90;4.70;;;;;;;;;;4955270;28;20479;-79
2023/09/09 12:13:33;;;;;;;19.35;4.75;;;;;;;;;;4972182;28;20030;-79
2023/09/09 12:15:59;;;;;;;5.00;4.60;;;;;;;;;;4959330;28;20031;-79
2023/09/09 12:18:24;;;;;;;7.20;5.22;;;;;;;;;;4955129;28;20038;-80
2023/09/09 12:21:03;;;;;;;9.23;4.53;;;;;;;;;;4971157;28;20825;-80
2023/09/09 12:23:33;;;;;;;6.13;4.50;;;;;;;;;;4954565;28;20038;-80
2023/09/09 12:26:16;;;;;;;7.03;4.60;;;;;;;;;;4951568;28;20054;-79
2023/09/09 12:28:45;;;;;;;4.80;4.07;;;;;;;;;;4953297;28;20122;-79
2023/09/09 12:31:11;;;;;;;5.05;3.90;;;;;;;;;;4978447;28;20038;-79
2023/09/09 12:33:43;;;;;;;5.13;4.38;;;;;;;;;;4953595;28;20039;-79
2023/09/09 12:36:20;;;;;;;8.82;5.03;;;;;;;;;;4976712;28;20036;-80
2023/09/09 12:38:48;;;;;;;10.55;5.30;;;;;;;;;;4973638;28;20247;-80
2023/09/09 12:41:21;;;;;;;11.60;6.35;;;;;;;;;;4971195;28;20040;-79
2023/09/09 12:43:48;;;;;;;6.13;5.57;;;;;;;;;;4953358;28;20042;-80
2023/09/09 12:46:15;;;;;;;6.20;5.60;;;;;;;;;;4973545;28;20036;-79
2023/09/09 12:48:58;;;;;;;6.60;5.47;;;;;;;;;;4970106;28;20058;-79
2023/09/09 12:51:25;;;;;;;9.48;6.30;;;;;;;;;;4971900;28;20046;-79
2023/09/09 12:53:52;;;;;;;6.50;5.50;;;;;;;;;;4958014;28;20019;-80
2023/09/09 12:56:18;;;;;;;7.80;5.20;;;;;;;;;;4965631;28;20035;-79
2023/09/09 12:58:43;;;;;;;11.30;5.28;;;;;;;;;;4977109;28;20054;-80
2023/09/09 13:01:09;;;;;;;7.78;5.68;;;;;;;;;;4980004;28;20037;-79
2023/09/09 13:03:34;;;;;;;8.73;5.10;;;;;;;;;;4977425;28;20040;-81
2023/09/09 13:05:59;;;;;;;10.52;5.80;;;;;;;;;;4969279;28;20027;-80
2023/09/09 13:08:25;;;;;;;8.05;5.68;;;;;;;;;;4950356;28;20043;-78
2023/09/09 13:10:50;;;;;;;6.70;5.35;;;;;;;;;;4953454;28;20991;-78
2023/09/09 13:13:15;;;;;;;5.43;4.80;;;;;;;;;;4953930;28;20047;-77
2023/09/09 13:15:41;;;;;;;29.55;7.55;;;;;;;;;;4968050;28;20131;-79
2023/09/09 13:18:06;;;;;;;18.52;6.20;;;;;;;;;;4950980;28;20030;-80
2023/09/09 13:20:32;;;;;;;7.28;5.35;;;;;;;;;;4976190;28;20023;-78
2023/09/09 13:22:57;;;;;;;55.42;8.82;;;;;;;;;;4950599;28;20142;-78
2023/09/09 13:25:22;;;;;;;55.78;9.10;;;;;;;;;;4983051;28;20038;-78
2023/09/09 13:27:48;;;;;;;8.10;5.88;;;;;;;;;;4949337;28;20046;-77
2023/09/09 13:30:14;;;;;;;5.88;5.38;;;;;;;;;;4963070;28;20026;-77
2023/09/09 13:32:39;;;;;;;6.57;5.30;;;;;;;;;;4948483;28;20023;-79
2023/09/09 13:35:05;;;;;;;7.20;5.63;;;;;;;;;;4970340;28;20078;-78
2023/09/09 13:37:31;;;;;;;5.68;5.18;;;;;;;;;;4987630;28;20046;-79
2023/09/09 13:39:56;;;;;;;8.73;5.45;;;;;;;;;;4953165;28;20115;-80
2023/09/09 13:42:22;;;;;;;6.00;5.38;;;;;;;;;;4969616;28;20112;-80
2023/09/09 13:44:47;;;;;;;8.13;5.93;;;;;;;;;;4956327;28;20043;-77
2023/09/09 13:47:13;;;;;;;6.07;5.40;;;;;;;;;;4961761;28;20039;-78
2023/09/09 13:49:38;;;;;;;5.70;5.20;;;;;;;;;;4952159;28;20050;-77
2023/09/09 13:52:05;;;;;;;10.15;5.60;;;;;;;;;;4979900;28;20405;-78
2023/09/09 13:54:30;;;;;;;10.75;5.10;;;;;;;;;;4973710;28;20042;-78
2023/09/09 13:56:57;;;;;;;10.57;5.10;;;;;;;;;;4954022;28;20061;-78
2023/09/09 13:59:22;;;;;;;8.93;5.82;;;;;;;;;;4958203;28;20109;-78
2023/09/09 14:01:49;;;;;;;6.32;5.53;;;;;;;;;;4969021;28;20042;-78
2023/09/09 14:04:14;;;;;;;5.82;5.10;;;;;;;;;;4948270;28;20031;-77
2023/09/09 14:06:39;;;;;;;6.63;5.80;;;;;;;;;;4979391;28;20065;-77
2023/09/09 14:09:05;;;;;;;6.65;5.32;;;;;;;;;;4968044;28;20026;-77
2023/09/09 14:11:30;;;;;;;13.18;5.57;;;;;;;;;;4947561;28;20688;-78
2023/09/09 14:13:55;;;;;;;8.40;5.28;;;;;;;;;;4963894;28;20042;-77
2023/09/09 14:16:20;;;;;;;5.88;5.28;;;;;;;;;;4972196;28;20499;-78
2023/09/09 14:18:46;;;;;;;6.57;5.22;;;;;;;;;;4964848;28;20051;-78
2023/09/09 14:21:11;;;;;;;7.90;5.13;;;;;;;;;;4966367;28;20136;-78
2023/09/09 14:23:36;;;;;;;8.35;5.30;;;;;;;;;;4967393;28;20038;-78
2023/09/09 14:26:05;;;;;;;7.50;5.35;;;;;;;;;;4969303;28;20530;-77
2023/09/09 14:28:30;;;;;;;9.13;5.22;;;;;;;;;;4970066;28;20030;-78